LFSO

Nancy-Ochey (BA 133) Air Base Airport

Nancy/Ochey, France
TAF LFSO 141400Z 1415/1515 30010KT 9999 SCT045 BKN065 BECMG 1421/1423 VRB03KT
Issued Valid From Valid To
Aug-14 @ 14:00 UTC
(23 hours ago)
Aug-14 @ 15:00 UTC
(22 hours ago)
Aug-15 @ 15:00 UTC
(in 2 hours)
Expired Click to View Aug-14 @ 15:00 to Aug-14 @ 21:00
TAF LFSO 141400Z 1415/1515 30010KT 9999 SCT045 BKN065
Wind Visibility Clouds
300° at 10 knots 10,000+ meters
  • Scattered at 4,500' AGL
  • Broken at 6,500' AGL
Becoming Aug-14 @ 21:00 to Aug-15 @ 15:00
BECMG 1421/1423 VRB03KT
Wind Visibility Clouds
Variable at 3 knots 10,000+ meters
  • Scattered at 4,500' AGL
  • Broken at 6,500' AGL
TAF LFSO 141400Z 1415/1515 30010KT 9999 SCT045 BKN065 BECMG 1421/1423 VRB03KT
Issued Aug-14 @ 14:00 UTC
(23 hours ago)
Valid From Aug-14 @ 15:00 UTC
(22 hours ago)
Valid To Aug-15 @ 15:00 UTC
(in 2 hours)
Aug-14 @ 15:00 - Aug-14 @ 21:00
Wind Visibility
300° at 10 knots 10,000+ meters
Clouds
  • Scattered at 4,500' AGL
  • Broken at 6,500' AGL
Becoming Aug-14 @ 21:00 - Aug-15 @ 15:00
Wind Visibility
Variable at 3 knots 10,000+ meters
Clouds
  • Scattered at 4,500' AGL
  • Broken at 6,500' AGL